Terminal Aerodrome Forecast
Issued by NWS

Home | Current Version | Previous Version | Text Only | Print | Product List | Glossary On
Versions: 1 2 3 4 5 6 7 8 9 10 11 12 13 14 15 16 17 18
000
FTUS43 KGRR 241740
TAFLAN
TAF
KLAN 241740Z 2418/2518 21014G20KT P6SM VCSH BKN090
     FM242200 22010KT P6SM VCTS BKN040CB
     FM250000 21008KT P6SM BKN250
     FM250300 23006KT 4SM BR BKN050
     FM251300 30007KT 6SM HZ BKN250=

USA.gov is the U.S. government's official web portal to all federal, state and local government web resources and services.